Terminal Aerodrome Forecast
Issued by NWS Charleston, WV

Current Version | Previous Version | Text Only | Print | Product List | Glossary Off
Versions: 1 2 3 4 5 6 7 8 9 10 11 12 13 14 15 16 17 18 19 20 21 22 23

000
FTUS41 KRLX 231026 AAC
TAFBKW
TAF AMD
KBKW 231026Z 2310/2406 22005KT P6SM BKN004
     FM231400 31004KT P6SM BKN012
     FM231600 33005KT P6SM BKN020
     FM231800 33006KT P6SM SCT025
     FM232200 34007G13KT P6SM SCT035
     FM240000 35006KT P6SM FEW250=

USA.gov is the U.S. government's official web portal to all federal, state and local government web resources and services.